sensor_id;sensor_type;location;lat;lon;timestamp;temperature;humidity
17092;DHT22;8661;45.700;4.880;2022-10-03T00:01:35;15.90;99.90
17092;DHT22;8661;45.700;4.880;2022-10-03T00:04:16;15.90;99.90
17092;DHT22;8661;45.700;4.880;2022-10-03T00:06:53;16.00;99.90
17092;DHT22;8661;45.700;4.880;2022-10-03T00:09:44;16.00;99.90
17092;DHT22;8661;45.700;4.880;2022-10-03T00:12:30;16.00;99.90
17092;DHT22;8661;45.700;4.880;2022-10-03T00:15:04;16.00;99.90
17092;DHT22;8661;45.700;4.880;2022-10-03T00:17:40;16.00;99.90
17092;DHT22;8661;45.700;4.880;2022-10-03T00:20:27;16.10;99.90
17092;DHT22;8661;45.700;4.880;2022-10-03T00:23:02;16.10;99.90
17092;DHT22;8661;45.700;4.880;2022-10-03T00:25:39;16.00;99.90
17092;DHT22;8661;45.700;4.880;2022-10-03T00:28:20;16.00;99.90
17092;DHT22;8661;45.700;4.880;2022-10-03T00:31:03;15.90;99.90
17092;DHT22;8661;45.700;4.880;2022-10-03T00:33:41;15.90;99.90
17092;DHT22;8661;45.700;4.880;2022-10-03T00:36:16;15.90;99.90
17092;DHT22;8661;45.700;4.880;2022-10-03T00:39:02;15.80;99.90
17092;DHT22;8661;45.700;4.880;2022-10-03T00:45:02;15.70;99.90
17092;DHT22;8661;45.700;4.880;2022-10-03T00:48:05;15.70;99.90
17092;DHT22;8661;45.700;4.880;2022-10-03T00:50:48;15.60;99.90
17092;DHT22;8661;45.700;4.880;2022-10-03T00:53:40;15.60;99.90
17092;DHT22;8661;45.700;4.880;2022-10-03T00:56:27;15.60;99.90
17092;DHT22;8661;45.700;4.880;2022-10-03T01:02:18;15.60;99.90
17092;DHT22;8661;45.700;4.880;2022-10-03T01:04:54;15.50;99.90
17092;DHT22;8661;45.700;4.880;2022-10-03T01:07:44;15.50;99.90
17092;DHT22;8661;45.700;4.880;2022-10-03T01:10:17;15.50;99.90
17092;DHT22;8661;45.700;4.880;2022-10-03T01:12:58;15.60;99.90
17092;DHT22;8661;45.700;4.880;2022-10-03T01:15:39;15.60;99.90
17092;DHT22;8661;45.700;4.880;2022-10-03T01:18:17;15.60;99.90
17092;DHT22;8661;45.700;4.880;2022-10-03T01:20:56;15.60;99.90
17092;DHT22;8661;45.700;4.880;2022-10-03T01:24:00;15.70;99.90
17092;DHT22;8661;45.700;4.880;2022-10-03T01:26:50;15.70;99.90
17092;DHT22;8661;45.700;4.880;2022-10-03T01:29:23;15.70;99.90
17092;DHT22;8661;45.700;4.880;2022-10-03T01:32:13;15.80;99.90
17092;DHT22;8661;45.700;4.880;2022-10-03T01:34:46;15.80;99.90
17092;DHT22;8661;45.700;4.880;2022-10-03T01:37:21;15.80;99.90
17092;DHT22;8661;45.700;4.880;2022-10-03T01:39:54;15.90;99.90
17092;DHT22;8661;45.700;4.880;2022-10-03T01:42:35;15.90;99.90
17092;DHT22;8661;45.700;4.880;2022-10-03T01:45:14;16.00;99.90
17092;DHT22;8661;45.700;4.880;2022-10-03T01:47:51;16.00;99.90
17092;DHT22;8661;45.700;4.880;2022-10-03T01:50:26;16.10;99.90
17092;DHT22;8661;45.700;4.880;2022-10-03T01:52:56;16.10;99.90
17092;DHT22;8661;45.700;4.880;2022-10-03T01:55:32;16.10;99.90
17092;DHT22;8661;45.700;4.880;2022-10-03T01:58:06;16.20;99.90
17092;DHT22;8661;45.700;4.880;2022-10-03T02:00:43;16.20;99.90
17092;DHT22;8661;45.700;4.880;2022-10-03T02:03:16;16.20;99.90
17092;DHT22;8661;45.700;4.880;2022-10-03T02:05:52;16.20;99.90
17092;DHT22;8661;45.700;4.880;2022-10-03T02:08:27;16.30;99.90
17092;DHT22;8661;45.700;4.880;2022-10-03T02:11:00;16.30;99.90
17092;DHT22;8661;45.700;4.880;2022-10-03T02:13:37;16.30;99.90
17092;DHT22;8661;45.700;4.880;2022-10-03T02:16:09;16.30;99.90
17092;DHT22;8661;45.700;4.880;2022-10-03T02:18:44;16.30;99.90
17092;DHT22;8661;45.700;4.880;2022-10-03T02:21:17;16.30;99.90
17092;DHT22;8661;45.700;4.880;2022-10-03T02:23:45;16.30;99.90
17092;DHT22;8661;45.700;4.880;2022-10-03T02:26:43;16.30;99.90
17092;DHT22;8661;45.700;4.880;2022-10-03T02:29:33;16.40;99.90
17092;DHT22;8661;45.700;4.880;2022-10-03T02:32:35;16.30;99.90
17092;DHT22;8661;45.700;4.880;2022-10-03T02:35:24;16.30;99.90
17092;DHT22;8661;45.700;4.880;2022-10-03T02:38:12;16.30;99.90
17092;DHT22;8661;45.700;4.880;2022-10-03T02:41:05;16.30;99.90
17092;DHT22;8661;45.700;4.880;2022-10-03T02:44:00;16.20;99.90
17092;DHT22;8661;45.700;4.880;2022-10-03T02:49:58;16.10;99.90
17092;DHT22;8661;45.700;4.880;2022-10-03T02:55:39;16.00;99.90
17092;DHT22;8661;45.700;4.880;2022-10-03T02:58:40;16.00;99.90
17092;DHT22;8661;45.700;4.880;2022-10-03T03:01:48;16.00;99.90
17092;DHT22;8661;45.700;4.880;2022-10-03T03:04:52;15.90;99.90
17092;DHT22;8661;45.700;4.880;2022-10-03T03:07:32;15.90;99.90
17092;DHT22;8661;45.700;4.880;2022-10-03T03:10:30;15.80;99.90
17092;DHT22;8661;45.700;4.880;2022-10-03T03:13:44;15.80;99.90
17092;DHT22;8661;45.700;4.880;2022-10-03T03:19:47;15.70;99.90
17092;DHT22;8661;45.700;4.880;2022-10-03T03:22:43;15.70;99.90
17092;DHT22;8661;45.700;4.880;2022-10-03T03:25:28;15.60;99.90
17092;DHT22;8661;45.700;4.880;2022-10-03T03:28:12;15.60;99.90
17092;DHT22;8661;45.700;4.880;2022-10-03T03:30:53;15.60;99.90
17092;DHT22;8661;45.700;4.880;2022-10-03T03:33:27;15.50;99.90
17092;DHT22;8661;45.700;4.880;2022-10-03T03:36:03;15.50;99.90
17092;DHT22;8661;45.700;4.880;2022-10-03T03:38:40;15.40;99.90
17092;DHT22;8661;45.700;4.880;2022-10-03T03:41:35;15.40;99.90
17092;DHT22;8661;45.700;4.880;2022-10-03T03:44:31;15.40;99.90
17092;DHT22;8661;45.700;4.880;2022-10-03T03:47:16;15.40;99.90
17092;DHT22;8661;45.700;4.880;2022-10-03T03:50:03;15.30;99.90
17092;DHT22;8661;45.700;4.880;2022-10-03T03:52:45;15.30;99.90
17092;DHT22;8661;45.700;4.880;2022-10-03T03:55:26;15.30;99.90
17092;DHT22;8661;45.700;4.880;2022-10-03T03:58:08;15.40;99.90
17092;DHT22;8661;45.700;4.880;2022-10-03T04:03:39;15.40;99.90
17092;DHT22;8661;45.700;4.880;2022-10-03T04:06:24;15.40;99.90
17092;DHT22;8661;45.700;4.880;2022-10-03T04:09:28;15.50;99.90
17092;DHT22;8661;45.700;4.880;2022-10-03T04:12:03;15.50;99.90
17092;DHT22;8661;45.700;4.880;2022-10-03T04:14:56;15.50;99.90
17092;DHT22;8661;45.700;4.880;2022-10-03T04:17:56;15.60;99.90
17092;DHT22;8661;45.700;4.880;2022-10-03T04:21:11;15.60;99.90
17092;DHT22;8661;45.700;4.880;2022-10-03T04:24:00;15.70;99.90
17092;DHT22;8661;45.700;4.880;2022-10-03T04:26:41;15.70;99.90
17092;DHT22;8661;45.700;4.880;2022-10-03T04:29:29;15.80;99.90
17092;DHT22;8661;45.700;4.880;2022-10-03T04:32:07;15.80;99.90
17092;DHT22;8661;45.700;4.880;2022-10-03T04:34:47;15.80;99.90
17092;DHT22;8661;45.700;4.880;2022-10-03T04:37:31;15.90;99.90
17092;DHT22;8661;45.700;4.880;2022-10-03T04:40:21;15.90;99.90
17092;DHT22;8661;45.700;4.880;2022-10-03T04:42:56;15.90;99.90
17092;DHT22;8661;45.700;4.880;2022-10-03T04:45:42;15.90;99.90
17092;DHT22;8661;45.700;4.880;2022-10-03T04:48:17;15.90;99.90
17092;DHT22;8661;45.700;4.880;2022-10-03T04:50:56;15.90;99.90
17092;DHT22;8661;45.700;4.880;2022-10-03T04:53:38;16.00;99.90
17092;DHT22;8661;45.700;4.880;2022-10-03T04:56:27;16.00;99.90
17092;DHT22;8661;45.700;4.880;2022-10-03T04:59:03;16.00;99.90
17092;DHT22;8661;45.700;4.880;2022-10-03T05:01:42;16.10;99.90
17092;DHT22;8661;45.700;4.880;2022-10-03T05:04:23;16.10;99.90
17092;DHT22;8661;45.700;4.880;2022-10-03T05:07:00;16.10;99.90
17092;DHT22;8661;45.700;4.880;2022-10-03T05:09:36;16.10;99.90
17092;DHT22;8661;45.700;4.880;2022-10-03T05:12:11;16.10;99.90
17092;DHT22;8661;45.700;4.880;2022-10-03T05:15:10;16.10;99.90
17092;DHT22;8661;45.700;4.880;2022-10-03T05:17:46;16.10;99.90
17092;DHT22;8661;45.700;4.880;2022-10-03T05:20:27;16.20;99.90
17092;DHT22;8661;45.700;4.880;2022-10-03T05:23:10;16.20;99.90
17092;DHT22;8661;45.700;4.880;2022-10-03T05:25:57;16.20;99.90
17092;DHT22;8661;45.700;4.880;2022-10-03T05:28:35;16.20;99.90
17092;DHT22;8661;45.700;4.880;2022-10-03T05:31:22;16.20;99.90
17092;DHT22;8661;45.700;4.880;2022-10-03T05:34:00;16.30;99.90
17092;DHT22;8661;45.700;4.880;2022-10-03T05:36:34;16.30;99.90
17092;DHT22;8661;45.700;4.880;2022-10-03T05:39:24;16.30;99.90
17092;DHT22;8661;45.700;4.880;2022-10-03T05:41:54;16.40;99.90
17092;DHT22;8661;45.700;4.880;2022-10-03T05:44:37;16.40;99.90
17092;DHT22;8661;45.700;4.880;2022-10-03T05:47:10;16.40;99.90
17092;DHT22;8661;45.700;4.880;2022-10-03T05:50:34;16.40;99.90
17092;DHT22;8661;45.700;4.880;2022-10-03T05:53:28;16.40;99.90
17092;DHT22;8661;45.700;4.880;2022-10-03T05:56:06;16.40;99.90
17092;DHT22;8661;45.700;4.880;2022-10-03T05:59:16;16.40;99.90
17092;DHT22;8661;45.700;4.880;2022-10-03T06:01:59;16.40;99.90
17092;DHT22;8661;45.700;4.880;2022-10-03T06:04:55;16.50;99.90
17092;DHT22;8661;45.700;4.880;2022-10-03T06:07:29;16.50;99.90
17092;DHT22;8661;45.700;4.880;2022-10-03T06:13:04;16.50;99.90
17092;DHT22;8661;45.700;4.880;2022-10-03T06:15:47;16.60;99.90
17092;DHT22;8661;45.700;4.880;2022-10-03T06:18:36;16.60;99.90
17092;DHT22;8661;45.700;4.880;2022-10-03T06:24:37;16.60;99.90
17092;DHT22;8661;45.700;4.880;2022-10-03T06:27:31;16.60;99.90
17092;DHT22;8661;45.700;4.880;2022-10-03T06:30:11;16.60;99.90
17092;DHT22;8661;45.700;4.880;2022-10-03T06:48:23;16.90;99.90
17092;DHT22;8661;45.700;4.880;2022-10-03T06:54:14;16.90;99.90
17092;DHT22;8661;45.700;4.880;2022-10-03T06:57:01;17.00;99.90
17092;DHT22;8661;45.700;4.880;2022-10-03T06:59:55;17.00;99.90
17092;DHT22;8661;45.700;4.880;2022-10-03T07:12:03;17.20;99.90
17092;DHT22;8661;45.700;4.880;2022-10-03T07:15:12;17.20;99.90
17092;DHT22;8661;45.700;4.880;2022-10-03T07:18:00;17.20;99.90
17092;DHT22;8661;45.700;4.880;2022-10-03T07:20:57;17.20;99.90
17092;DHT22;8661;45.700;4.880;2022-10-03T07:23:46;17.20;99.90
17092;DHT22;8661;45.700;4.880;2022-10-03T07:27:00;17.20;99.90
17092;DHT22;8661;45.700;4.880;2022-10-03T07:30:07;17.30;99.90
17092;DHT22;8661;45.700;4.880;2022-10-03T07:35:40;17.50;99.90
17092;DHT22;8661;45.700;4.880;2022-10-03T07:38:45;17.60;99.90
17092;DHT22;8661;45.700;4.880;2022-10-03T07:50:46;18.10;99.90
17092;DHT22;8661;45.700;4.880;2022-10-03T07:53:34;18.20;99.90
17092;DHT22;8661;45.700;4.880;2022-10-03T07:56:13;18.30;99.90
17092;DHT22;8661;45.700;4.880;2022-10-03T07:58:59;18.50;99.90
17092;DHT22;8661;45.700;4.880;2022-10-03T08:01:52;18.60;99.90
17092;DHT22;8661;45.700;4.880;2022-10-03T08:04:56;18.90;99.90
17092;DHT22;8661;45.700;4.880;2022-10-03T08:07:56;19.20;99.90
17092;DHT22;8661;45.700;4.880;2022-10-03T08:13:47;19.60;99.90
17092;DHT22;8661;45.700;4.880;2022-10-03T08:16:29;19.80;99.90
17092;DHT22;8661;45.700;4.880;2022-10-03T08:19:19;20.10;99.90
17092;DHT22;8661;45.700;4.880;2022-10-03T08:21:57;20.30;99.90
17092;DHT22;8661;45.700;4.880;2022-10-03T08:27:43;20.50;99.90
17092;DHT22;8661;45.700;4.880;2022-10-03T08:30:21;20.60;99.90
17092;DHT22;8661;45.700;4.880;2022-10-03T08:39:11;21.30;99.90
17092;DHT22;8661;45.700;4.880;2022-10-03T08:45:21;21.80;99.90
17092;DHT22;8661;45.700;4.880;2022-10-03T08:48:21;22.60;99.90
17092;DHT22;8661;45.700;4.880;2022-10-03T08:57:05;25.00;99.90
17092;DHT22;8661;45.700;4.880;2022-10-03T09:00:02;25.30;97.90
17092;DHT22;8661;45.700;4.880;2022-10-03T09:09:11;24.20;97.00
17092;DHT22;8661;45.700;4.880;2022-10-03T09:12:16;24.10;98.60
17092;DHT22;8661;45.700;4.880;2022-10-03T09:15:14;24.00;98.50
17092;DHT22;8661;45.700;4.880;2022-10-03T09:18:06;23.90;98.30
17092;DHT22;8661;45.700;4.880;2022-10-03T09:21:05;23.60;98.60
17092;DHT22;8661;45.700;4.880;2022-10-03T09:27:15;23.60;98.90
17092;DHT22;8661;45.700;4.880;2022-10-03T09:30:06;23.40;99.00
17092;DHT22;8661;45.700;4.880;2022-10-03T09:36:03;23.50;99.10
17092;DHT22;8661;45.700;4.880;2022-10-03T09:42:02;23.60;98.20
17092;DHT22;8661;45.700;4.880;2022-10-03T09:44:54;23.50;97.60
17092;DHT22;8661;45.700;4.880;2022-10-03T09:47:59;23.30;98.40
17092;DHT22;8661;45.700;4.880;2022-10-03T09:50:50;23.10;99.00
17092;DHT22;8661;45.700;4.880;2022-10-03T09:54:16;23.10;98.90
17092;DHT22;8661;45.700;4.880;2022-10-03T10:00:18;22.80;99.40
17092;DHT22;8661;45.700;4.880;2022-10-03T10:03:00;22.70;99.80
17092;DHT22;8661;45.700;4.880;2022-10-03T10:05:47;22.70;99.60
17092;DHT22;8661;45.700;4.880;2022-10-03T10:11:35;22.50;99.60
17092;DHT22;8661;45.700;4.880;2022-10-03T10:14:34;22.50;99.40
17092;DHT22;8661;45.700;4.880;2022-10-03T10:20:28;22.90;99.90
17092;DHT22;8661;45.700;4.880;2022-10-03T10:23:21;23.60;98.30
17092;DHT22;8661;45.700;4.880;2022-10-03T10:26:19;24.00;96.30
17092;DHT22;8661;45.700;4.880;2022-10-03T10:32:42;24.00;94.80
17092;DHT22;8661;45.700;4.880;2022-10-03T10:42:16;23.30;96.70
17092;DHT22;8661;45.700;4.880;2022-10-03T10:45:23;23.20;96.90
17092;DHT22;8661;45.700;4.880;2022-10-03T10:54:37;22.60;96.80
17092;DHT22;8661;45.700;4.880;2022-10-03T10:57:23;22.60;97.20
17092;DHT22;8661;45.700;4.880;2022-10-03T11:00:27;22.40;97.70
17092;DHT22;8661;45.700;4.880;2022-10-03T11:09:33;22.10;97.90
17092;DHT22;8661;45.700;4.880;2022-10-03T11:18:57;22.20;98.60
17092;DHT22;8661;45.700;4.880;2022-10-03T11:22:16;22.20;98.90
17092;DHT22;8661;45.700;4.880;2022-10-03T11:34:41;23.80;96.40
17092;DHT22;8661;45.700;4.880;2022-10-03T11:37:34;23.80;95.70
17092;DHT22;8661;45.700;4.880;2022-10-03T11:40:29;24.00;95.70
17092;DHT22;8661;45.700;4.880;2022-10-03T11:43:24;24.30;94.40
17092;DHT22;8661;45.700;4.880;2022-10-03T11:46:09;24.30;94.10
17092;DHT22;8661;45.700;4.880;2022-10-03T11:48:41;24.50;94.40
17092;DHT22;8661;45.700;4.880;2022-10-03T11:51:14;24.60;94.30
17092;DHT22;8661;45.700;4.880;2022-10-03T11:53:45;24.60;94.10
17092;DHT22;8661;45.700;4.880;2022-10-03T11:56:33;24.50;93.80
17092;DHT22;8661;45.700;4.880;2022-10-03T11:59:28;24.50;94.10
17092;DHT22;8661;45.700;4.880;2022-10-03T12:02:10;24.60;93.40
17092;DHT22;8661;45.700;4.880;2022-10-03T12:04:49;24.60;92.10
17092;DHT22;8661;45.700;4.880;2022-10-03T12:07:38;24.40;93.00
17092;DHT22;8661;45.700;4.880;2022-10-03T12:10:35;24.40;92.70
17092;DHT22;8661;45.700;4.880;2022-10-03T12:13:09;24.60;92.30
17092;DHT22;8661;45.700;4.880;2022-10-03T12:15:42;24.80;92.80
17092;DHT22;8661;45.700;4.880;2022-10-03T12:18:15;25.30;92.70
17092;DHT22;8661;45.700;4.880;2022-10-03T12:21:10;25.50;91.70
17092;DHT22;8661;45.700;4.880;2022-10-03T12:23:53;25.60;91.10
17092;DHT22;8661;45.700;4.880;2022-10-03T12:26:27;25.60;90.10
17092;DHT22;8661;45.700;4.880;2022-10-03T12:28:59;25.80;90.80
17092;DHT22;8661;45.700;4.880;2022-10-03T12:31:32;26.10;90.30
17092;DHT22;8661;45.700;4.880;2022-10-03T12:34:22;27.20;89.60
17092;DHT22;8661;45.700;4.880;2022-10-03T12:37:07;28.20;86.50
17092;DHT22;8661;45.700;4.880;2022-10-03T12:39:47;28.90;81.20
17092;DHT22;8661;45.700;4.880;2022-10-03T12:42:26;29.20;78.30
17092;DHT22;8661;45.700;4.880;2022-10-03T12:44:57;29.30;78.30
17092;DHT22;8661;45.700;4.880;2022-10-03T12:47:40;29.60;76.00
17092;DHT22;8661;45.700;4.880;2022-10-03T12:50:21;29.90;76.50
17092;DHT22;8661;45.700;4.880;2022-10-03T12:53:02;30.40;73.40
17092;DHT22;8661;45.700;4.880;2022-10-03T12:55:35;30.30;73.40
17092;DHT22;8661;45.700;4.880;2022-10-03T12:58:09;30.60;72.70
17092;DHT22;8661;45.700;4.880;2022-10-03T13:00:44;31.10;71.60
17092;DHT22;8661;45.700;4.880;2022-10-03T13:03:20;31.20;69.90
17092;DHT22;8661;45.700;4.880;2022-10-03T13:06:12;31.10;70.00
17092;DHT22;8661;45.700;4.880;2022-10-03T13:08:52;30.90;70.30
17092;DHT22;8661;45.700;4.880;2022-10-03T13:11:30;31.10;69.30
17092;DHT22;8661;45.700;4.880;2022-10-03T13:14:26;31.10;69.50
17092;DHT22;8661;45.700;4.880;2022-10-03T13:17:03;30.80;68.20
17092;DHT22;8661;45.700;4.880;2022-10-03T13:19:40;30.50;70.10
17092;DHT22;8661;45.700;4.880;2022-10-03T13:22:23;30.70;70.50
17092;DHT22;8661;45.700;4.880;2022-10-03T13:25:00;30.50;69.90
17092;DHT22;8661;45.700;4.880;2022-10-03T13:27:36;30.40;69.60
17092;DHT22;8661;45.700;4.880;2022-10-03T13:30:15;30.20;69.70
17092;DHT22;8661;45.700;4.880;2022-10-03T13:32:45;29.90;70.90
17092;DHT22;8661;45.700;4.880;2022-10-03T13:35:33;29.70;71.40
17092;DHT22;8661;45.700;4.880;2022-10-03T13:38:54;29.60;71.00
17092;DHT22;8661;45.700;4.880;2022-10-03T13:41:38;29.50;70.10
17092;DHT22;8661;45.700;4.880;2022-10-03T13:44:15;29.50;71.20
17092;DHT22;8661;45.700;4.880;2022-10-03T13:46:44;29.50;70.70
17092;DHT22;8661;45.700;4.880;2022-10-03T13:49:24;29.60;71.30
17092;DHT22;8661;45.700;4.880;2022-10-03T13:51:58;29.70;71.60
17092;DHT22;8661;45.700;4.880;2022-10-03T13:54:46;29.60;71.40
17092;DHT22;8661;45.700;4.880;2022-10-03T13:57:17;29.70;70.00
17092;DHT22;8661;45.700;4.880;2022-10-03T13:59:56;29.50;71.30
17092;DHT22;8661;45.700;4.880;2022-10-03T14:02:40;29.20;71.00
17092;DHT22;8661;45.700;4.880;2022-10-03T14:05:36;29.10;71.00
17092;DHT22;8661;45.700;4.880;2022-10-03T14:08:12;28.90;72.30
17092;DHT22;8661;45.700;4.880;2022-10-03T14:11:07;28.70;72.50
17092;DHT22;8661;45.700;4.880;2022-10-03T14:13:51;28.70;72.70
17092;DHT22;8661;45.700;4.880;2022-10-03T14:16:25;28.40;73.00
17092;DHT22;8661;45.700;4.880;2022-10-03T14:19:01;28.50;73.20
17092;DHT22;8661;45.700;4.880;2022-10-03T14:21:54;28.30;72.80
17092;DHT22;8661;45.700;4.880;2022-10-03T14:24:36;28.20;72.30
17092;DHT22;8661;45.700;4.880;2022-10-03T14:27:25;28.10;73.40
17092;DHT22;8661;45.700;4.880;2022-10-03T14:30:01;28.10;73.60
17092;DHT22;8661;45.700;4.880;2022-10-03T14:32:41;28.10;75.30
17092;DHT22;8661;45.700;4.880;2022-10-03T14:35:18;28.20;73.70
17092;DHT22;8661;45.700;4.880;2022-10-03T14:37:56;27.90;74.80
17092;DHT22;8661;45.700;4.880;2022-10-03T14:40:29;27.70;75.70
17092;DHT22;8661;45.700;4.880;2022-10-03T14:43:16;27.60;75.50
17092;DHT22;8661;45.700;4.880;2022-10-03T14:45:49;27.50;75.80
17092;DHT22;8661;45.700;4.880;2022-10-03T14:48:21;27.40;75.50
17092;DHT22;8661;45.700;4.880;2022-10-03T14:50:53;26.90;75.90
17092;DHT22;8661;45.700;4.880;2022-10-03T14:53:24;26.70;76.50
17092;DHT22;8661;45.700;4.880;2022-10-03T14:55:58;26.60;77.30
17092;DHT22;8661;45.700;4.880;2022-10-03T14:58:29;26.50;77.90
17092;DHT22;8661;45.700;4.880;2022-10-03T15:01:05;26.30;77.60
17092;DHT22;8661;45.700;4.880;2022-10-03T15:03:37;26.10;78.50
17092;DHT22;8661;45.700;4.880;2022-10-03T15:06:21;26.10;78.90
17092;DHT22;8661;45.700;4.880;2022-10-03T15:08:58;26.00;79.90
17092;DHT22;8661;45.700;4.880;2022-10-03T15:11:29;26.10;79.60
17092;DHT22;8661;45.700;4.880;2022-10-03T15:13:58;25.90;79.40
17092;DHT22;8661;45.700;4.880;2022-10-03T15:16:28;25.70;79.60
17092;DHT22;8661;45.700;4.880;2022-10-03T15:19:03;25.50;80.30
17092;DHT22;8661;45.700;4.880;2022-10-03T15:21:31;25.30;80.50
17092;DHT22;8661;45.700;4.880;2022-10-03T15:24:01;25.30;80.50
17092;DHT22;8661;45.700;4.880;2022-10-03T15:26:34;25.10;81.60
17092;DHT22;8661;45.700;4.880;2022-10-03T15:29:03;25.20;82.10
17092;DHT22;8661;45.700;4.880;2022-10-03T15:31:35;25.30;81.30
17092;DHT22;8661;45.700;4.880;2022-10-03T15:34:11;26.10;79.40
17092;DHT22;8661;45.700;4.880;2022-10-03T15:36:42;27.70;77.70
17092;DHT22;8661;45.700;4.880;2022-10-03T15:39:17;28.80;74.40
17092;DHT22;8661;45.700;4.880;2022-10-03T15:41:54;28.10;73.80
17092;DHT22;8661;45.700;4.880;2022-10-03T15:44:26;26.40;77.40
17092;DHT22;8661;45.700;4.880;2022-10-03T15:46:59;25.40;79.80
17092;DHT22;8661;45.700;4.880;2022-10-03T15:49:35;24.70;81.50
17092;DHT22;8661;45.700;4.880;2022-10-03T15:52:13;24.20;82.70
17092;DHT22;8661;45.700;4.880;2022-10-03T15:54:44;23.80;83.90
17092;DHT22;8661;45.700;4.880;2022-10-03T15:57:17;23.50;85.30
17092;DHT22;8661;45.700;4.880;2022-10-03T15:59:50;23.10;86.80
17092;DHT22;8661;45.700;4.880;2022-10-03T16:02:22;22.70;87.60
17092;DHT22;8661;45.700;4.880;2022-10-03T16:04:54;22.50;88.40
17092;DHT22;8661;45.700;4.880;2022-10-03T16:07:28;22.30;90.00
17092;DHT22;8661;45.700;4.880;2022-10-03T16:10:10;22.10;90.20
17092;DHT22;8661;45.700;4.880;2022-10-03T16:12:49;21.70;90.70
17092;DHT22;8661;45.700;4.880;2022-10-03T16:15:22;21.50;91.10
17092;DHT22;8661;45.700;4.880;2022-10-03T16:17:54;21.30;91.60
17092;DHT22;8661;45.700;4.880;2022-10-03T16:20:27;21.20;91.90
17092;DHT22;8661;45.700;4.880;2022-10-03T16:22:56;20.90;92.50
17092;DHT22;8661;45.700;4.880;2022-10-03T16:25:25;20.80;92.90
17092;DHT22;8661;45.700;4.880;2022-10-03T16:27:57;20.60;93.30
17092;DHT22;8661;45.700;4.880;2022-10-03T16:30:29;20.30;93.70
17092;DHT22;8661;45.700;4.880;2022-10-03T16:33:05;20.10;94.30
17092;DHT22;8661;45.700;4.880;2022-10-03T16:35:41;20.00;94.60
17092;DHT22;8661;45.700;4.880;2022-10-03T16:38:18;19.80;94.90
17092;DHT22;8661;45.700;4.880;2022-10-03T16:40:55;19.60;95.40
17092;DHT22;8661;45.700;4.880;2022-10-03T16:43:22;19.50;95.90
17092;DHT22;8661;45.700;4.880;2022-10-03T16:45:51;19.30;96.40
17092;DHT22;8661;45.700;4.880;2022-10-03T16:48:22;19.20;96.70
17092;DHT22;8661;45.700;4.880;2022-10-03T16:51:16;19.10;97.10
17092;DHT22;8661;45.700;4.880;2022-10-03T16:53:45;19.10;97.90
17092;DHT22;8661;45.700;4.880;2022-10-03T16:56:15;19.00;98.30
17092;DHT22;8661;45.700;4.880;2022-10-03T16:58:47;18.90;98.40
17092;DHT22;8661;45.700;4.880;2022-10-03T17:01:28;18.80;98.90
17092;DHT22;8661;45.700;4.880;2022-10-03T17:04:08;18.70;99.40
17092;DHT22;8661;45.700;4.880;2022-10-03T17:06:39;18.60;99.80
17092;DHT22;8661;45.700;4.880;2022-10-03T17:09:16;18.60;99.90
17092;DHT22;8661;45.700;4.880;2022-10-03T17:11:48;18.50;99.90
17092;DHT22;8661;45.700;4.880;2022-10-03T17:14:18;18.40;99.90
17092;DHT22;8661;45.700;4.880;2022-10-03T17:16:50;18.30;99.90
17092;DHT22;8661;45.700;4.880;2022-10-03T17:19:26;18.20;99.90
17092;DHT22;8661;45.700;4.880;2022-10-03T17:22:04;18.10;99.90
17092;DHT22;8661;45.700;4.880;2022-10-03T17:24:41;18.10;99.90
17092;DHT22;8661;45.700;4.880;2022-10-03T17:27:19;18.00;99.90
17092;DHT22;8661;45.700;4.880;2022-10-03T17:29:51;18.00;99.90
17092;DHT22;8661;45.700;4.880;2022-10-03T17:32:23;17.90;99.90
17092;DHT22;8661;45.700;4.880;2022-10-03T17:34:57;17.90;99.90
17092;DHT22;8661;45.700;4.880;2022-10-03T17:40:43;17.80;99.90
17092;DHT22;8661;45.700;4.880;2022-10-03T17:43:18;17.90;99.90
17092;DHT22;8661;45.700;4.880;2022-10-03T17:45:52;17.90;99.90
17092;DHT22;8661;45.700;4.880;2022-10-03T17:48:23;17.90;99.90
17092;DHT22;8661;45.700;4.880;2022-10-03T17:50:58;17.90;99.90
17092;DHT22;8661;45.700;4.880;2022-10-03T17:53:30;17.80;99.90
17092;DHT22;8661;45.700;4.880;2022-10-03T17:56:02;17.80;99.90
17092;DHT22;8661;45.700;4.880;2022-10-03T17:58:31;17.80;99.90
17092;DHT22;8661;45.700;4.880;2022-10-03T18:01:04;17.80;99.90
17092;DHT22;8661;45.700;4.880;2022-10-03T18:03:40;17.90;99.90
17092;DHT22;8661;45.700;4.880;2022-10-03T18:06:34;17.90;99.90
17092;DHT22;8661;45.700;4.880;2022-10-03T18:09:09;17.90;99.90
17092;DHT22;8661;45.700;4.880;2022-10-03T18:11:46;17.90;99.90
17092;DHT22;8661;45.700;4.880;2022-10-03T18:14:21;17.80;99.90
17092;DHT22;8661;45.700;4.880;2022-10-03T18:17:01;17.80;99.90
17092;DHT22;8661;45.700;4.880;2022-10-03T18:19:45;17.80;99.90
17092;DHT22;8661;45.700;4.880;2022-10-03T18:22:17;17.70;99.90
17092;DHT22;8661;45.700;4.880;2022-10-03T18:24:58;17.70;99.90
17092;DHT22;8661;45.700;4.880;2022-10-03T18:28:10;17.70;99.90
17092;DHT22;8661;45.700;4.880;2022-10-03T18:30:44;17.70;99.90
17092;DHT22;8661;45.700;4.880;2022-10-03T18:33:14;17.70;99.90
17092;DHT22;8661;45.700;4.880;2022-10-03T18:35:46;17.70;99.90
17092;DHT22;8661;45.700;4.880;2022-10-03T18:38:18;17.70;99.90
17092;DHT22;8661;45.700;4.880;2022-10-03T18:40:51;17.60;99.90
17092;DHT22;8661;45.700;4.880;2022-10-03T18:43:30;17.60;99.90
17092;DHT22;8661;45.700;4.880;2022-10-03T18:46:09;17.60;99.90
17092;DHT22;8661;45.700;4.880;2022-10-03T18:48:44;17.60;99.90
17092;DHT22;8661;45.700;4.880;2022-10-03T18:51:15;17.60;99.90
17092;DHT22;8661;45.700;4.880;2022-10-03T18:53:48;17.60;99.90
17092;DHT22;8661;45.700;4.880;2022-10-03T18:56:22;17.50;99.90
17092;DHT22;8661;45.700;4.880;2022-10-03T18:59:05;17.50;99.90
17092;DHT22;8661;45.700;4.880;2022-10-03T19:01:42;17.50;99.90
17092;DHT22;8661;45.700;4.880;2022-10-03T19:04:13;17.60;99.90
17092;DHT22;8661;45.700;4.880;2022-10-03T19:06:44;17.50;99.90
17092;DHT22;8661;45.700;4.880;2022-10-03T19:09:16;17.50;99.90
17092;DHT22;8661;45.700;4.880;2022-10-03T19:11:51;17.50;99.90
17092;DHT22;8661;45.700;4.880;2022-10-03T19:14:28;17.50;99.90
17092;DHT22;8661;45.700;4.880;2022-10-03T19:17:15;17.50;99.90
17092;DHT22;8661;45.700;4.880;2022-10-03T19:19:49;17.50;99.90
17092;DHT22;8661;45.700;4.880;2022-10-03T19:22:23;17.50;99.90
17092;DHT22;8661;45.700;4.880;2022-10-03T19:24:51;17.50;99.90
17092;DHT22;8661;45.700;4.880;2022-10-03T19:27:23;17.50;99.90
17092;DHT22;8661;45.700;4.880;2022-10-03T19:29:53;17.50;99.90
17092;DHT22;8661;45.700;4.880;2022-10-03T19:32:25;17.40;99.90
17092;DHT22;8661;45.700;4.880;2022-10-03T19:34:58;17.40;99.90
17092;DHT22;8661;45.700;4.880;2022-10-03T19:37:37;17.40;99.90
17092;DHT22;8661;45.700;4.880;2022-10-03T19:40:13;17.40;99.90
17092;DHT22;8661;45.700;4.880;2022-10-03T19:42:44;17.40;99.90
17092;DHT22;8661;45.700;4.880;2022-10-03T19:45:14;17.40;99.90
17092;DHT22;8661;45.700;4.880;2022-10-03T19:47:47;17.40;99.90
17092;DHT22;8661;45.700;4.880;2022-10-03T19:50:20;17.40;99.90
17092;DHT22;8661;45.700;4.880;2022-10-03T19:52:48;17.40;99.90